createdAt,value
2022-12-18T00:01:23.161Z,92.24
2022-12-18T00:03:50.708Z,92.58
2022-12-18T00:06:17.969Z,92.41
2022-12-18T00:08:45.731Z,92.49
2022-12-18T00:11:15.230Z,92.97
2022-12-18T00:13:43.013Z,92.81
2022-12-18T00:16:13.088Z,92.97
2022-12-18T00:18:40.935Z,93.21
2022-12-18T00:21:09.946Z,92.66
2022-12-18T00:23:38.851Z,92.84
2022-12-18T00:26:08.677Z,93.31
2022-12-18T00:28:35.425Z,93.64
2022-12-18T00:31:03.366Z,94.00
2022-12-18T00:33:30.464Z,93.84
2022-12-18T00:36:09.945Z,93.97
2022-12-18T00:38:37.475Z,92.84
2022-12-18T00:41:05.346Z,91.66
2022-12-18T00:43:36.035Z,91.70
2022-12-18T00:46:03.556Z,91.77
2022-12-18T00:48:30.477Z,92.03
2022-12-18T00:50:57.373Z,92.27
2022-12-18T00:53:24.400Z,91.87
2022-12-18T00:55:51.104Z,92.37
2022-12-18T00:58:17.934Z,91.42
2022-12-18T01:00:44.896Z,91.70
2022-12-18T01:03:15.161Z,92.54
2022-12-18T01:05:43.420Z,92.21
2022-12-18T01:08:10.538Z,91.31
2022-12-18T01:10:37.360Z,91.35
2022-12-18T01:13:04.096Z,92.05
2022-12-18T01:15:30.807Z,91.43
2022-12-18T01:17:57.772Z,91.86
2022-12-18T01:20:24.579Z,92.02
2022-12-18T01:22:51.267Z,91.81
2022-12-18T01:25:18.150Z,91.59
2022-12-18T01:27:45.014Z,91.85
2022-12-18T01:30:12.055Z,92.13
2022-12-18T01:32:38.732Z,92.57
2022-12-18T01:35:06.342Z,91.95
2022-12-18T01:37:33.275Z,92.48
2022-12-18T01:40:00.145Z,92.56
2022-12-18T01:42:26.946Z,92.19
2022-12-18T01:44:56.751Z,92.53
2022-12-18T01:47:37.708Z,92.08
2022-12-18T01:50:13.596Z,92.32
2022-12-18T01:52:43.560Z,92.24
2022-12-18T01:55:11.944Z,92.03
2022-12-18T01:57:40.022Z,91.62
2022-12-18T02:00:14.368Z,91.74
2022-12-18T02:02:46.273Z,92.48
2022-12-18T02:05:17.897Z,91.64
2022-12-18T02:07:56.336Z,91.55
2022-12-18T02:10:26.060Z,91.71
2022-12-18T02:13:28.129Z,91.76
2022-12-18T02:16:11.564Z,92.85
2022-12-18T02:18:42.752Z,92.96
2022-12-18T02:21:31.369Z,92.99
2022-12-18T02:24:35.833Z,92.60
2022-12-18T02:27:07.483Z,92.35
2022-12-18T02:29:41.457Z,92.42
2022-12-18T02:32:19.115Z,92.57
2022-12-18T02:34:48.216Z,92.24
2022-12-18T02:37:18.823Z,91.15
2022-12-18T02:39:49.651Z,90.83
2022-12-18T02:42:18.494Z,90.73
2022-12-18T02:44:51.587Z,90.86
2022-12-18T02:47:24.400Z,91.81
2022-12-18T02:49:57.461Z,91.62
2022-12-18T02:52:45.826Z,91.31
2022-12-18T02:55:50.338Z,91.87
2022-12-18T02:58:21.905Z,92.61
2022-12-18T03:00:59.583Z,92.55
2022-12-18T03:03:33.638Z,91.60
2022-12-18T03:06:27.489Z,90.89
2022-12-18T03:08:59.494Z,90.88
2022-12-18T03:11:47.921Z,90.82
2022-12-18T03:14:18.402Z,90.66
2022-12-18T03:16:47.301Z,90.22
2022-12-18T03:19:19.396Z,90.06
2022-12-18T03:21:50.702Z,90.35
2022-12-18T03:24:19.869Z,90.35
2022-12-18T03:26:50.331Z,90.27
2022-12-18T03:29:23.152Z,90.18
2022-12-18T03:31:56.490Z,90.97
2022-12-18T03:34:30.131Z,90.35
2022-12-18T03:36:56.972Z,90.43
2022-12-18T03:39:23.852Z,89.68
2022-12-18T03:42:06.203Z,88.99
2022-12-18T03:44:40.938Z,88.99
2022-12-18T03:47:16.733Z,88.31
2022-12-18T03:50:13.373Z,88.78
2022-12-18T03:52:49.473Z,89.16
2022-12-18T03:55:17.536Z,89.04
2022-12-18T03:57:45.786Z,89.05
2022-12-18T04:00:18.847Z,88.71
2022-12-18T04:02:53.994Z,89.16
2022-12-18T04:05:22.078Z,90.31
2022-12-18T04:07:50.822Z,90.50
2022-12-18T04:10:18.696Z,90.98
2022-12-18T04:12:45.657Z,90.97
2022-12-18T04:15:13.622Z,91.52
2022-12-18T04:17:50.215Z,91.69
2022-12-18T04:20:17.914Z,91.29
2022-12-18T04:22:44.638Z,91.07
2022-12-18T04:25:12.747Z,91.47
2022-12-18T04:27:39.619Z,91.54
2022-12-18T04:30:07.078Z,91.42
2022-12-18T04:32:35.283Z,90.42
2022-12-18T04:35:02.982Z,89.62
2022-12-18T04:37:29.658Z,89.13
2022-12-18T04:39:56.318Z,89.36
2022-12-18T04:42:23.024Z,89.53
2022-12-18T04:44:49.789Z,89.41
2022-12-18T04:47:16.547Z,89.91
2022-12-18T04:49:43.242Z,90.16
2022-12-18T04:52:09.902Z,90.67
2022-12-18T04:54:36.788Z,91.11
2022-12-18T04:57:03.620Z,90.46
2022-12-18T04:59:30.348Z,90.48
2022-12-18T05:01:57.175Z,90.12
2022-12-18T05:04:24.009Z,90.77
2022-12-18T05:06:50.738Z,91.11
2022-12-18T05:09:17.412Z,91.57
2022-12-18T05:11:47.545Z,92.02
2022-12-18T05:14:14.245Z,92.08
2022-12-18T05:16:41.068Z,92.46
2022-12-18T05:19:07.777Z,92.18
2022-12-18T05:21:34.538Z,91.41
2022-12-18T05:24:01.262Z,90.50
2022-12-18T05:26:27.948Z,90.36
2022-12-18T05:28:54.802Z,90.66
2022-12-18T05:31:21.587Z,91.10
2022-12-18T05:33:48.380Z,90.34
2022-12-18T05:36:15.238Z,90.02
2022-12-18T05:38:42.052Z,90.52
2022-12-18T05:41:09.970Z,89.96
2022-12-18T05:43:38.598Z,90.10
2022-12-18T05:46:13.068Z,90.57
2022-12-18T05:48:40.011Z,90.19
2022-12-18T05:51:12.946Z,90.63
2022-12-18T05:53:40.349Z,90.93
2022-12-18T05:56:13.753Z,90.80
2022-12-18T05:58:40.642Z,91.53
2022-12-18T06:01:12.339Z,90.33
2022-12-18T06:03:40.123Z,90.71
2022-12-18T06:06:33.628Z,90.81
2022-12-18T06:09:02.257Z,91.23
2022-12-18T06:11:28.992Z,90.68
2022-12-18T06:13:59.175Z,90.82
2022-12-18T06:16:27.242Z,91.19
2022-12-18T06:18:54.629Z,91.71
2022-12-18T06:21:21.378Z,92.06
2022-12-18T06:23:48.047Z,91.51
2022-12-18T06:26:15.176Z,91.62
2022-12-18T06:28:42.255Z,92.04
2022-12-18T06:31:10.044Z,92.00
2022-12-18T06:33:38.389Z,92.19
2022-12-18T06:36:12.304Z,92.88
2022-12-18T06:38:41.713Z,92.33
2022-12-18T06:41:10.369Z,93.43
2022-12-18T06:43:37.708Z,93.86
2022-12-18T06:46:07.213Z,93.52
2022-12-18T06:48:34.020Z,93.44
2022-12-18T06:51:00.730Z,93.61
2022-12-18T06:53:27.688Z,93.46
2022-12-18T06:56:06.441Z,93.73
2022-12-18T06:58:36.194Z,93.82
2022-12-18T07:01:05.461Z,93.51
2022-12-18T07:03:32.377Z,93.05
2022-12-18T07:05:59.193Z,93.62
2022-12-18T07:08:25.977Z,93.12
2022-12-18T07:10:56.253Z,92.64
2022-12-18T07:13:23.930Z,92.55
2022-12-18T07:15:50.577Z,93.06
2022-12-18T07:18:17.371Z,92.24
2022-12-18T07:20:45.113Z,92.63
2022-12-18T07:23:12.888Z,92.32
2022-12-18T07:25:40.375Z,92.42
2022-12-18T07:28:07.147Z,92.41
2022-12-18T07:30:34.220Z,92.53
2022-12-18T07:33:01.044Z,92.21
2022-12-18T07:35:27.812Z,92.19
2022-12-18T07:37:54.805Z,92.54
2022-12-18T07:40:21.530Z,92.46
2022-12-18T07:42:48.293Z,92.13
2022-12-18T07:45:15.301Z,92.66
2022-12-18T07:47:43.353Z,92.90
2022-12-18T07:50:10.399Z,93.47
2022-12-18T07:52:37.138Z,93.64
2022-12-18T07:55:04.357Z,93.18
2022-12-18T07:57:49.899Z,93.24
2022-12-18T08:00:17.459Z,93.50
2022-12-18T08:02:44.268Z,92.45
2022-12-18T08:05:11.004Z,92.56
2022-12-18T08:07:37.677Z,92.28
2022-12-18T08:10:04.709Z,92.36
2022-12-18T08:12:33.438Z,91.70
2022-12-18T08:15:00.164Z,91.18
2022-12-18T08:17:26.902Z,91.52
2022-12-18T08:19:53.605Z,91.79
2022-12-18T08:22:20.389Z,91.57
2022-12-18T08:24:47.064Z,91.77
2022-12-18T08:27:28.805Z,91.56
2022-12-18T08:29:57.251Z,91.17
2022-12-18T08:32:24.845Z,91.58
2022-12-18T08:34:51.637Z,92.17
2022-12-18T08:37:18.310Z,92.53
2022-12-18T08:39:45.188Z,92.14
2022-12-18T08:42:30.592Z,92.20
2022-12-18T08:44:57.775Z,91.78
2022-12-18T08:47:24.570Z,91.78
2022-12-18T08:49:51.632Z,91.63
2022-12-18T08:52:18.392Z,91.50
2022-12-18T08:54:45.221Z,91.23
2022-12-18T08:57:11.898Z,90.92
2022-12-18T08:59:38.671Z,90.28
2022-12-18T09:02:05.492Z,90.38
2022-12-18T09:04:32.380Z,89.95
2022-12-18T09:06:59.103Z,89.34
2022-12-18T09:09:25.835Z,89.14
2022-12-18T09:11:52.608Z,88.33
2022-12-18T09:14:19.303Z,88.90
2022-12-18T09:16:46.139Z,88.96
2022-12-18T09:19:13.087Z,88.67
2022-12-18T09:21:46.094Z,88.64
2022-12-18T09:24:16.000Z,88.27
2022-12-18T09:26:43.493Z,87.57
2022-12-18T09:29:13.742Z,87.41
2022-12-18T09:31:40.602Z,87.22
2022-12-18T09:34:08.095Z,86.64
2022-12-18T09:36:35.143Z,86.60
2022-12-18T09:39:07.569Z,87.38
2022-12-18T09:41:41.544Z,86.09
2022-12-18T09:44:28.932Z,85.05
2022-12-18T09:47:05.310Z,84.95
2022-12-18T09:49:36.986Z,84.78
2022-12-18T09:52:16.939Z,83.64
2022-12-18T09:55:06.440Z,83.80
2022-12-18T09:57:36.592Z,84.71
2022-12-18T10:00:14.712Z,84.36
2022-12-18T10:02:41.705Z,83.78
2022-12-18T10:05:15.940Z,83.36
2022-12-18T10:07:48.232Z,83.27
2022-12-18T10:10:35.861Z,83.36
2022-12-18T10:13:17.655Z,83.95
2022-12-18T10:16:09.743Z,84.35
2022-12-18T10:18:49.439Z,84.81
2022-12-18T10:21:26.528Z,85.63
2022-12-18T10:24:17.069Z,85.44
2022-12-18T10:26:45.098Z,84.85
2022-12-18T10:29:17.256Z,85.06
2022-12-18T10:31:44.411Z,84.59
2022-12-18T10:34:12.167Z,84.40
2022-12-18T10:36:39.239Z,84.45
2022-12-18T10:39:18.475Z,85.15
2022-12-18T10:41:45.707Z,84.85
2022-12-18T10:44:21.041Z,84.81
2022-12-18T10:46:51.111Z,85.23
2022-12-18T10:49:24.725Z,84.75
2022-12-18T10:51:52.921Z,84.95
2022-12-18T10:54:23.597Z,84.62
2022-12-18T10:56:50.658Z,84.09
2022-12-18T10:59:18.889Z,84.60
2022-12-18T11:01:58.190Z,84.54
2022-12-18T11:04:31.251Z,83.81
2022-12-18T11:07:04.054Z,83.41
2022-12-18T11:09:36.582Z,83.13
2022-12-18T11:12:13.923Z,82.49
2022-12-18T11:14:49.846Z,83.05
2022-12-18T11:17:31.660Z,83.79
2022-12-18T11:20:23.522Z,83.13
2022-12-18T11:23:05.642Z,82.29
2022-12-18T11:25:35.382Z,81.79
2022-12-18T11:28:27.007Z,81.04
2022-12-18T11:31:23.536Z,80.67
2022-12-18T11:36:49.160Z,79.94
2022-12-18T11:39:30.374Z,80.05
2022-12-18T11:42:10.811Z,80.15
2022-12-18T11:45:03.290Z,80.12
2022-12-18T11:47:36.768Z,79.90
2022-12-18T11:50:12.800Z,80.25
2022-12-18T11:52:41.749Z,79.95
2022-12-18T11:55:25.585Z,79.42
2022-12-18T11:58:02.503Z,79.36
2022-12-18T12:00:29.732Z,79.26
2022-12-18T12:03:14.764Z,78.99
2022-12-18T12:06:00.303Z,79.65
2022-12-18T12:08:33.194Z,79.14
2022-12-18T12:11:09.675Z,79.01
2022-12-18T12:14:04.356Z,80.04
2022-12-18T12:16:40.808Z,79.81
2022-12-18T12:19:25.489Z,80.13
2022-12-18T12:22:04.521Z,80.44
2022-12-18T12:24:50.354Z,80.82
2022-12-18T12:27:35.947Z,80.61
2022-12-18T12:30:17.283Z,80.54
2022-12-18T12:33:14.963Z,79.99
2022-12-18T12:35:52.322Z,80.13
2022-12-18T12:38:28.106Z,80.28
2022-12-18T12:41:03.504Z,80.90
2022-12-18T12:43:49.669Z,81.09
2022-12-18T12:46:20.719Z,80.84
2022-12-18T12:49:05.158Z,80.62
2022-12-18T12:51:38.126Z,81.32
2022-12-18T12:54:12.771Z,82.66
2022-12-18T12:56:59.485Z,84.41
2022-12-18T12:59:39.568Z,85.14
2022-12-18T13:02:25.884Z,85.33
2022-12-18T13:05:08.058Z,85.64
2022-12-18T13:08:07.590Z,85.97
2022-12-18T13:10:37.403Z,86.71
2022-12-18T13:13:17.934Z,86.82
2022-12-18T13:16:05.868Z,86.67
2022-12-18T13:18:33.796Z,87.29
2022-12-18T13:21:03.231Z,87.49
2022-12-18T13:23:37.512Z,87.82
2022-12-18T13:26:07.471Z,88.12
2022-12-18T13:28:34.508Z,87.79
2022-12-18T13:31:02.623Z,88.09
2022-12-18T13:33:29.856Z,88.33
2022-12-18T13:36:14.246Z,88.23
2022-12-18T13:38:42.864Z,88.06
2022-12-18T13:41:15.747Z,88.84
2022-12-18T13:43:47.204Z,89.15
2022-12-18T13:46:20.411Z,89.58
2022-12-18T13:48:56.437Z,89.93
2022-12-18T13:51:24.943Z,90.18
2022-12-18T13:53:55.281Z,90.16
2022-12-18T13:56:31.400Z,90.15
2022-12-18T13:59:14.476Z,90.61
2022-12-18T14:01:53.922Z,91.11
2022-12-18T14:04:26.063Z,91.37
2022-12-18T14:06:56.905Z,91.47
2022-12-18T14:09:30.884Z,91.34
2022-12-18T14:12:19.491Z,91.85
2022-12-18T14:14:48.823Z,91.98
2022-12-18T14:17:17.115Z,92.15
2022-12-18T14:19:47.510Z,91.95
2022-12-18T14:22:30.275Z,92.21
2022-12-18T14:25:16.301Z,92.40
2022-12-18T14:27:46.631Z,92.72
2022-12-18T14:30:44.059Z,92.88
2022-12-18T14:33:16.938Z,93.28
2022-12-18T14:35:55.710Z,93.18
2022-12-18T14:38:33.634Z,93.62
2022-12-18T14:41:14.168Z,94.09
2022-12-18T14:43:48.911Z,94.93
2022-12-18T14:46:36.537Z,94.66
2022-12-18T14:49:37.684Z,95.01
2022-12-18T14:52:07.086Z,95.29
2022-12-18T14:54:37.787Z,95.79
2022-12-18T14:57:25.917Z,96.34
2022-12-18T14:59:53.013Z,96.39
2022-12-18T15:02:26.087Z,96.58
2022-12-18T15:05:12.710Z,96.69
2022-12-18T15:07:54.634Z,97.03
2022-12-18T15:10:24.349Z,96.89
2022-12-18T15:13:08.538Z,97.68
2022-12-18T15:15:38.608Z,98.03
2022-12-18T15:18:08.383Z,98.43
2022-12-18T15:20:43.335Z,98.29
2022-12-18T15:23:33.814Z,98.35
2022-12-18T15:26:09.838Z,98.59
2022-12-18T15:28:40.105Z,98.39
2022-12-18T15:31:11.967Z,98.54
2022-12-18T15:33:42.661Z,98.61
2022-12-18T15:36:12.085Z,98.63
2022-12-18T15:38:38.925Z,98.82
2022-12-18T15:41:08.945Z,99.19
2022-12-18T15:43:40.229Z,99.62
2022-12-18T15:46:13.973Z,100.00
2022-12-18T15:48:46.419Z,100.00
2022-12-18T15:51:21.192Z,100.00
2022-12-18T15:53:54.874Z,100.00
2022-12-18T15:56:40.609Z,100.00
2022-12-18T15:59:30.840Z,100.00
2022-12-18T16:01:57.702Z,100.00
2022-12-18T16:04:26.316Z,100.00
2022-12-18T16:09:40.028Z,100.00
2022-12-18T16:12:14.942Z,100.00
2022-12-18T16:14:41.840Z,100.00
2022-12-18T16:17:11.958Z,100.00
2022-12-18T16:19:38.736Z,100.00
2022-12-18T16:22:06.606Z,100.00
2022-12-18T16:24:36.916Z,100.00
2022-12-18T16:27:04.047Z,100.00
2022-12-18T16:29:30.982Z,100.00
2022-12-18T16:32:00.141Z,100.00
2022-12-18T16:34:29.957Z,100.00
2022-12-18T16:37:08.268Z,100.00
2022-12-18T16:39:35.964Z,100.00
2022-12-18T16:42:17.419Z,100.00
2022-12-18T16:44:45.446Z,100.00
2022-12-18T16:47:15.109Z,100.00
2022-12-18T16:49:45.233Z,100.00
2022-12-18T16:52:12.602Z,100.00
2022-12-18T16:54:39.305Z,100.00
2022-12-18T16:57:07.773Z,100.00
2022-12-18T16:59:37.323Z,100.00
2022-12-18T17:02:05.844Z,100.00
2022-12-18T17:04:33.630Z,100.00
2022-12-18T17:07:00.367Z,100.00
2022-12-18T17:09:32.061Z,100.00
2022-12-18T17:12:03.936Z,100.00
2022-12-18T17:14:32.919Z,100.00
2022-12-18T17:17:20.284Z,100.00
2022-12-18T17:19:47.061Z,100.00
2022-12-18T17:22:13.733Z,100.00
2022-12-18T17:24:40.523Z,100.00
2022-12-18T17:27:08.836Z,100.00
2022-12-18T17:29:35.787Z,100.00
2022-12-18T17:32:02.624Z,100.00
2022-12-18T17:34:30.002Z,100.00
2022-12-18T17:36:57.853Z,100.00
2022-12-18T17:39:28.643Z,100.00
2022-12-18T17:41:57.294Z,100.00
2022-12-18T17:44:26.632Z,100.00
2022-12-18T17:46:53.515Z,100.00
2022-12-18T17:49:21.263Z,100.00
2022-12-18T17:51:48.990Z,100.00
2022-12-18T17:54:15.767Z,100.00
2022-12-18T17:56:42.648Z,100.00
2022-12-18T17:59:09.668Z,100.00
2022-12-18T18:01:43.775Z,100.00
2022-12-18T18:04:12.050Z,100.00
2022-12-18T18:06:39.602Z,100.00
2022-12-18T18:09:16.295Z,100.00
2022-12-18T18:12:04.123Z,100.00
2022-12-18T18:14:31.411Z,100.00
2022-12-18T18:17:04.027Z,100.00
2022-12-18T18:19:31.999Z,100.00
2022-12-18T18:21:58.958Z,100.00
2022-12-18T18:24:28.238Z,100.00
2022-12-18T18:26:56.454Z,100.00
2022-12-18T18:29:26.582Z,100.00
2022-12-18T18:31:54.238Z,100.00
2022-12-18T18:34:27.720Z,100.00
2022-12-18T18:36:54.507Z,100.00
2022-12-18T18:39:21.331Z,100.00
2022-12-18T18:41:51.030Z,100.00
2022-12-18T18:44:20.534Z,100.00
2022-12-18T18:46:57.699Z,100.00
2022-12-18T18:49:27.305Z,100.00
2022-12-18T18:51:55.273Z,100.00
2022-12-18T18:54:22.233Z,100.00
2022-12-18T18:59:37.151Z,100.00
2022-12-18T19:02:05.031Z,100.00
2022-12-18T19:04:33.745Z,100.00
2022-12-18T19:07:00.602Z,100.00
2022-12-18T19:09:28.587Z,100.00
2022-12-18T19:12:15.080Z,100.00
2022-12-18T19:14:42.440Z,100.00
2022-12-18T19:17:10.024Z,100.00
2022-12-18T19:19:36.756Z,100.00
2022-12-18T19:22:03.679Z,100.00
2022-12-18T19:24:30.733Z,100.00
2022-12-18T19:26:58.237Z,100.00
2022-12-18T19:29:25.266Z,100.00
2022-12-18T19:31:52.184Z,100.00
2022-12-18T19:34:19.164Z,100.00
2022-12-18T19:36:46.512Z,100.00
2022-12-18T19:39:17.099Z,100.00
2022-12-18T19:41:44.271Z,100.00
2022-12-18T19:44:13.696Z,100.00
2022-12-18T19:46:41.817Z,100.00
2022-12-18T19:49:18.005Z,100.00
2022-12-18T19:51:47.811Z,100.00
2022-12-18T19:54:17.866Z,100.00
2022-12-18T19:56:45.828Z,100.00
2022-12-18T19:59:12.945Z,100.00
2022-12-18T20:01:40.771Z,100.00
2022-12-18T20:04:08.070Z,100.00
2022-12-18T20:06:50.433Z,100.00
2022-12-18T20:09:17.906Z,100.00
2022-12-18T20:11:46.131Z,100.00
2022-12-18T20:14:19.676Z,100.00
2022-12-18T20:16:51.994Z,100.00
2022-12-18T20:19:19.485Z,100.00
2022-12-18T20:21:46.308Z,100.00
2022-12-18T20:24:13.358Z,100.00
2022-12-18T20:26:40.574Z,100.00
2022-12-18T20:29:07.623Z,100.00
2022-12-18T20:31:34.605Z,100.00
2022-12-18T20:34:03.578Z,100.00
2022-12-18T20:36:34.311Z,100.00
2022-12-18T20:39:07.531Z,100.00
2022-12-18T20:41:38.392Z,100.00
2022-12-18T20:44:21.738Z,100.00
2022-12-18T20:46:56.197Z,100.00
2022-12-18T20:49:24.730Z,100.00
2022-12-18T20:51:53.231Z,100.00
2022-12-18T20:54:21.362Z,100.00
2022-12-18T20:56:48.088Z,100.00
2022-12-18T20:59:14.846Z,100.00
2022-12-18T21:01:46.020Z,100.00
2022-12-18T21:04:15.992Z,100.00
2022-12-18T21:06:49.630Z,100.00
2022-12-18T21:09:19.177Z,100.00
2022-12-18T21:12:04.688Z,100.00
2022-12-18T21:14:31.549Z,100.00
2022-12-18T21:17:00.933Z,100.00
2022-12-18T21:19:28.482Z,100.00
2022-12-18T21:21:56.463Z,100.00
2022-12-18T21:24:23.583Z,100.00
2022-12-18T21:26:50.435Z,100.00
2022-12-18T21:29:20.337Z,100.00
2022-12-18T21:31:47.513Z,100.00
2022-12-18T21:34:19.958Z,100.00
2022-12-18T21:36:47.416Z,100.00
2022-12-18T21:39:15.342Z,100.00
2022-12-18T21:42:00.849Z,100.00
2022-12-18T21:44:27.883Z,100.00
2022-12-18T21:46:59.827Z,100.00
2022-12-18T21:49:28.384Z,100.00
2022-12-18T21:51:57.210Z,100.00
2022-12-18T21:54:25.329Z,100.00
2022-12-18T21:56:53.307Z,100.00
2022-12-18T21:59:25.895Z,100.00
2022-12-18T22:01:55.106Z,100.00
2022-12-18T22:04:23.293Z,100.00
2022-12-18T22:06:50.492Z,100.00
2022-12-18T22:09:20.931Z,100.00
2022-12-18T22:11:49.018Z,100.00
2022-12-18T22:14:16.653Z,100.00
2022-12-18T22:16:43.598Z,100.00
2022-12-18T22:19:12.074Z,100.00
2022-12-18T22:21:43.602Z,100.00
2022-12-18T22:24:21.466Z,100.00
2022-12-18T22:26:50.069Z,100.00
2022-12-18T22:29:37.659Z,100.00
2022-12-18T22:32:06.152Z,100.00
2022-12-18T22:34:36.603Z,100.00
2022-12-18T22:37:03.558Z,100.00
2022-12-18T22:39:31.365Z,100.00
2022-12-18T22:41:59.027Z,100.00
2022-12-18T22:44:26.203Z,100.00
2022-12-18T22:47:05.966Z,100.00
2022-12-18T22:49:35.124Z,100.00
2022-12-18T22:52:06.083Z,100.00
2022-12-18T22:54:32.849Z,100.00
2022-12-18T22:56:59.600Z,100.00
2022-12-18T22:59:26.258Z,100.00
2022-12-18T23:01:58.496Z,100.00
2022-12-18T23:04:29.294Z,100.00
2022-12-18T23:07:05.089Z,100.00
2022-12-18T23:09:32.455Z,100.00
2022-12-18T23:11:59.334Z,100.00
2022-12-18T23:14:26.470Z,100.00
2022-12-18T23:16:53.411Z,100.00
2022-12-18T23:19:21.018Z,100.00
2022-12-18T23:21:51.095Z,100.00
2022-12-18T23:24:18.104Z,100.00
2022-12-18T23:26:44.907Z,100.00
2022-12-18T23:29:11.680Z,100.00
2022-12-18T23:31:39.613Z,100.00
2022-12-18T23:34:07.577Z,100.00
2022-12-18T23:36:45.933Z,100.00
2022-12-18T23:39:24.379Z,100.00
2022-12-18T23:41:58.270Z,100.00
2022-12-18T23:44:25.875Z,100.00
2022-12-18T23:46:52.956Z,100.00
2022-12-18T23:49:19.989Z,100.00
2022-12-18T23:51:46.763Z,100.00
2022-12-18T23:54:13.555Z,100.00
2022-12-18T23:56:40.388Z,100.00
2022-12-18T23:59:07.246Z,100.00
